Time;durP1;ratioP1;P1;durP2;ratioP2;P2;SDS_P1;SDS_P2;PMS_P1;PMS_P2;Temp;Humidity;BMP_temperature;BMP_pressure;BME280_temperature;BME280_humidity;BME280_pressure;Samples;Min_cycle;Max_cycle;Signal;HPM_P1;HPM_P2
2021/05/18 00:00:23;;;;;;;5.50;4.93;;;18.70;56.20;;;;;;6164120;23;20201;-79
2021/05/18 00:02:49;;;;;;;7.43;4.72;;;18.80;56.40;;;;;;6190728;23;20139;-79
2021/05/18 00:05:16;;;;;;;6.63;5.30;;;18.70;56.20;;;;;;6190428;23;20585;-79
2021/05/18 00:07:52;;;;;;;5.70;4.97;;;18.70;56.20;;;;;;6190986;23;20166;-79
2021/05/18 00:13:03;;;;;;;5.88;5.10;;;18.70;56.20;;;;;;6189955;23;20141;-79
2021/05/18 00:15:30;;;;;;;6.20;5.00;;;18.70;56.30;;;;;;6190442;23;20471;-79
2021/05/18 00:17:56;;;;;;;6.70;5.00;;;18.70;56.30;;;;;;6163735;23;20138;-79
2021/05/18 00:20:23;;;;;;;6.00;4.90;;;18.70;56.30;;;;;;6163861;23;20131;-79
2021/05/18 00:22:50;;;;;;;6.13;5.03;;;18.70;56.30;;;;;;6163377;23;20131;-79
2021/05/18 00:25:16;;;;;;;5.47;4.97;;;18.70;56.30;;;;;;6138818;23;20629;-79
2021/05/18 00:27:43;;;;;;;5.88;5.18;;;18.70;56.30;;;;;;6189292;23;20173;-79
2021/05/18 00:30:12;;;;;;;7.07;5.30;;;18.70;56.30;;;;;;6189749;23;20555;-79
2021/05/18 00:32:39;;;;;;;6.35;4.95;;;18.70;56.30;;;;;;6163580;23;20590;-79
2021/05/18 00:35:08;;;;;;;6.03;4.80;;;18.70;56.40;;;;;;6163528;23;20186;-79
2021/05/18 00:37:34;;;;;;;6.18;5.30;;;18.70;56.30;;;;;;6189501;23;20179;-79
2021/05/18 00:40:01;;;;;;;6.60;5.22;;;18.70;56.30;;;;;;6189795;23;20158;-79
2021/05/18 00:42:27;;;;;;;6.00;5.13;;;18.70;56.30;;;;;;6189422;23;20130;-79
2021/05/18 00:44:54;;;;;;;5.50;4.90;;;18.70;56.30;;;;;;6189027;23;20135;-79
2021/05/18 00:47:20;;;;;;;5.90;5.30;;;18.70;56.30;;;;;;6188819;23;20178;-79
2021/05/18 00:49:47;;;;;;;9.15;5.47;;;18.70;56.70;;;;;;6189637;23;20571;-79
2021/05/18 00:52:13;;;;;;;6.03;5.30;;;18.70;56.50;;;;;;6189761;23;20571;-79
2021/05/18 00:55:05;;;;;;;6.43;5.50;;;18.70;56.60;;;;;;6188820;23;20135;-79
2021/05/18 01:00:12;;;;;;;5.70;5.10;;;18.70;56.60;;;;;;6188671;23;20514;-80
2021/05/18 01:02:39;;;;;;;5.88;5.18;;;18.60;56.60;;;;;;6189213;23;20153;-79
2021/05/18 01:05:10;;;;;;;7.25;5.30;;;18.70;56.70;;;;;;6189282;23;20171;-79
2021/05/18 01:07:38;;;;;;;6.40;5.63;;;18.70;56.60;;;;;;6189262;23;20209;-79
2021/05/18 01:10:04;;;;;;;6.20;5.40;;;18.60;56.60;;;;;;6189329;23;20214;-79
2021/05/18 01:12:30;;;;;;;7.28;5.43;;;18.60;56.60;;;;;;6189006;23;20134;-79
2021/05/18 01:14:57;;;;;;;6.05;5.45;;;18.60;56.60;;;;;;6189003;23;20162;-80
2021/05/18 01:17:24;;;;;;;7.88;5.53;;;18.60;56.70;;;;;;6162452;23;20135;-79
2021/05/18 01:19:50;;;;;;;6.80;5.70;;;18.60;56.60;;;;;;6163239;23;20148;-80
2021/05/18 01:22:25;;;;;;;7.30;5.03;;;18.60;56.70;;;;;;6188764;23;20154;-79
2021/05/18 01:24:52;;;;;;;6.50;5.38;;;18.60;56.70;;;;;;6188765;23;20130;-79
2021/05/18 01:27:18;;;;;;;7.47;5.38;;;18.60;56.70;;;;;;6189224;23;20667;-80
2021/05/18 01:29:44;;;;;;;7.28;5.45;;;18.60;56.80;;;;;;6188815;23;20138;-79
2021/05/18 01:32:11;;;;;;;6.50;5.10;;;18.60;56.80;;;;;;6189328;23;20131;-79
2021/05/18 01:34:36;;;;;;;5.38;4.82;;;18.60;56.60;;;;;;6188477;23;20320;-79
2021/05/18 01:37:03;;;;;;;6.47;5.38;;;18.60;56.70;;;;;;6189090;23;20143;-79
2021/05/18 01:44:41;;;;;;;6.53;5.10;;;18.60;56.60;;;;;;6166761;23;20506;-79
2021/05/18 01:47:10;;;;;;;6.20;5.40;;;18.60;56.70;;;;;;6188532;23;20169;-79
2021/05/18 01:49:37;;;;;;;7.13;5.47;;;18.60;56.70;;;;;;6162760;23;20127;-79
2021/05/18 01:52:08;;;;;;;11.98;5.78;;;18.60;56.70;;;;;;6188662;23;20238;-79
2021/05/18 01:54:35;;;;;;;6.47;5.05;;;18.60;56.70;;;;;;6163632;23;20131;-79
2021/05/18 01:59:31;;;;;;;7.20;5.70;;;18.60;56.80;;;;;;6165521;23;20210;-79
2021/05/18 02:02:01;;;;;;;6.97;5.60;;;18.60;56.80;;;;;;6165045;23;20177;-79
2021/05/18 02:04:31;;;;;;;8.70;5.95;;;18.60;56.70;;;;;;6165130;23;20189;-80
2021/05/18 02:06:59;;;;;;;10.15;5.30;;;18.60;56.90;;;;;;6190734;23;20174;-79
2021/05/18 02:09:25;;;;;;;5.95;5.18;;;18.60;56.90;;;;;;6164187;23;20154;-79
2021/05/18 02:11:51;;;;;;;5.78;5.10;;;18.60;56.90;;;;;;6190905;23;20551;-79
2021/05/18 02:14:37;;;;;;;7.88;5.40;;;18.60;56.90;;;;;;6164353;23;20139;-79
2021/05/18 02:25:16;;;;;;;6.68;5.05;;;18.50;56.90;;;;;;6070602;23;20183;-79
2021/05/18 02:27:43;;;;;;;6.30;5.45;;;18.50;57.00;;;;;;6070728;23;20304;-79
2021/05/18 02:30:11;;;;;;;7.85;5.43;;;18.50;57.30;;;;;;6070474;23;20137;-79
2021/05/18 02:32:37;;;;;;;6.13;5.38;;;18.50;56.90;;;;;;6070674;23;20221;-79
2021/05/18 02:35:06;;;;;;;7.50;5.30;;;18.50;57.10;;;;;;6070533;23;20239;-80
2021/05/18 02:37:32;;;;;;;7.18;5.70;;;18.50;56.90;;;;;;6070216;23;20157;-79
2021/05/18 02:39:59;;;;;;;7.43;5.05;;;18.50;57.00;;;;;;6071562;23;20233;-79
2021/05/18 02:42:25;;;;;;;6.25;5.65;;;18.50;57.10;;;;;;6070884;23;20313;-79
2021/05/18 02:45:05;;;;;;;5.97;5.20;;;18.50;57.00;;;;;;6070964;23;20578;-79
2021/05/18 02:50:30;;;;;;;6.93;5.45;;;18.50;57.00;;;;;;6070990;23;20160;-79
2021/05/18 02:52:56;;;;;;;7.57;5.45;;;18.50;57.00;;;;;;6070182;23;20146;-79
2021/05/18 02:55:31;;;;;;;7.75;5.57;;;18.50;56.90;;;;;;6070633;23;20137;-79
2021/05/18 02:57:57;;;;;;;6.72;5.72;;;18.50;56.80;;;;;;6179600;23;20641;-80
2021/05/18 03:00:24;;;;;;;6.00;5.40;;;18.50;56.90;;;;;;6190330;23;20135;-79
2021/05/18 03:02:51;;;;;;;6.93;5.30;;;18.60;57.00;;;;;;6164574;23;20559;-79
2021/05/18 03:05:18;;;;;;;6.28;5.35;;;18.50;56.70;;;;;;6190715;23;20138;-79
2021/05/18 03:07:44;;;;;;;7.63;5.72;;;18.60;56.80;;;;;;6164233;23;20178;-79
2021/05/18 03:10:13;;;;;;;7.18;5.38;;;18.50;56.70;;;;;;6164243;23;20155;-79
2021/05/18 03:12:40;;;;;;;7.45;5.53;;;18.50;56.80;;;;;;6190253;23;20134;-79
2021/05/18 03:15:07;;;;;;;7.35;5.50;;;18.50;56.90;;;;;;6164155;23;20174;-80
2021/05/18 03:17:35;;;;;;;5.95;5.35;;;18.50;56.70;;;;;;6190329;23;20618;-79
2021/05/18 03:20:03;;;;;;;6.03;5.43;;;18.50;56.90;;;;;;6190813;23;20127;-79
2021/05/18 03:22:30;;;;;;;8.65;5.43;;;18.50;56.90;;;;;;6163802;23;20135;-79
2021/05/18 03:24:56;;;;;;;6.40;5.53;;;18.60;56.70;;;;;;6164108;23;20475;-79
2021/05/18 03:27:25;;;;;;;6.45;5.47;;;18.50;56.70;;;;;;6164272;23;20562;-79
2021/05/18 03:29:52;;;;;;;8.80;5.53;;;18.50;56.70;;;;;;6190407;23;20127;-79
2021/05/18 03:35:05;;;;;;;8.27;5.55;;;18.50;56.60;;;;;;6191179;23;20692;-79
2021/05/18 03:37:47;;;;;;;7.40;5.45;;;18.50;56.70;;;;;;6190221;23;20170;-79
2021/05/18 03:40:15;;;;;;;6.03;5.43;;;18.50;56.90;;;;;;6190352;23;20136;-79
2021/05/18 03:42:46;;;;;;;6.85;5.60;;;18.50;56.90;;;;;;6189901;23;20499;-79
2021/05/18 03:45:21;;;;;;;7.13;5.72;;;18.50;56.90;;;;;;6190309;23;20552;-79
2021/05/18 04:04:24;;;;;;;7.32;5.28;;;18.40;57.10;;;;;;6169067;23;20138;-79
2021/05/18 04:52:21;;;;;;;6.85;5.75;;;18.40;57.00;;;;;;6190825;23;20154;-79
2021/05/18 05:00:27;;;;;;;7.93;5.95;;;18.40;57.10;;;;;;6168818;23;20142;-79
2021/05/18 05:16:29;;;;;;;6.55;5.20;;;18.50;57.00;;;;;;6082918;23;20209;-80
2021/05/18 05:18:55;;;;;;;7.15;5.38;;;18.40;57.00;;;;;;6078888;23;20158;-80
2021/05/18 05:21:27;;;;;;;6.43;5.57;;;18.40;57.00;;;;;;6102756;23;20141;-79
2021/05/18 05:23:53;;;;;;;6.38;5.70;;;18.40;56.90;;;;;;6102175;23;20176;-79
2021/05/18 05:26:18;;;;;;;6.15;5.47;;;18.40;56.90;;;;;;6102069;23;20638;-79
2021/05/18 05:28:44;;;;;;;6.97;5.65;;;18.40;56.60;;;;;;6078416;23;20181;-79
2021/05/18 05:31:10;;;;;;;6.20;5.25;;;18.40;57.00;;;;;;6100763;23;20593;-79
2021/05/18 05:33:35;;;;;;;6.85;5.60;;;18.40;56.90;;;;;;6074271;23;20621;-79
2021/05/18 05:36:01;;;;;;;7.38;5.80;;;18.40;57.00;;;;;;6098725;23;20656;-80
2021/05/18 05:38:30;;;;;;;7.05;5.53;;;18.40;56.90;;;;;;6075671;23;20137;-79
2021/05/18 05:40:55;;;;;;;6.93;5.60;;;18.40;56.80;;;;;;6100771;23;20133;-79
2021/05/18 05:43:21;;;;;;;7.43;5.60;;;18.40;56.90;;;;;;6173285;23;20154;-80
2021/05/18 05:45:50;;;;;;;7.40;5.72;;;18.40;56.70;;;;;;6191805;23;20177;-79
2021/05/18 05:48:19;;;;;;;6.53;5.45;;;18.40;56.80;;;;;;6191316;23;20182;-79
2021/05/18 05:50:46;;;;;;;7.38;5.45;;;18.40;56.80;;;;;;6192761;23;20161;-79
2021/05/18 05:53:12;;;;;;;7.53;5.70;;;18.40;56.70;;;;;;6192259;23;20135;-79
2021/05/18 05:55:39;;;;;;;6.47;5.35;;;18.40;56.70;;;;;;6193497;23;20159;-80
2021/05/18 05:58:05;;;;;;;7.07;5.55;;;18.40;56.50;;;;;;6166231;23;20146;-79
2021/05/18 06:00:31;;;;;;;6.65;5.40;;;18.50;56.60;;;;;;6166190;23;20165;-80
2021/05/18 06:02:57;;;;;;;7.13;5.70;;;18.50;56.60;;;;;;6192401;23;20479;-79
2021/05/18 06:05:22;;;;;;;6.72;6.05;;;18.50;56.60;;;;;;6165768;23;20131;-80
2021/05/18 06:07:48;;;;;;;6.80;5.35;;;18.50;56.50;;;;;;6192167;23;20179;-80
2021/05/18 06:10:19;;;;;;;7.63;5.43;;;18.50;56.50;;;;;;6193338;23;20170;-79
2021/05/18 06:47:33;;;;;;;6.45;5.55;;;18.70;56.30;;;;;;6191944;23;20725;-81
2021/05/18 06:52:46;;;;;;;6.50;5.80;;;18.70;56.10;;;;;;6168501;23;20142;-81
2021/05/18 06:55:14;;;;;;;6.82;5.95;;;18.70;56.20;;;;;;6117211;23;20158;-81
2021/05/18 06:57:44;;;;;;;6.03;5.13;;;18.70;56.20;;;;;;6165449;23;20173;-81
2021/05/18 07:00:13;;;;;;;7.40;5.90;;;18.70;56.20;;;;;;6167085;23;20564;-82
2021/05/18 07:02:41;;;;;;;6.40;5.60;;;18.70;56.20;;;;;;6193072;23;20127;-81
2021/05/18 07:10:45;;;;;;;6.38;5.47;;;18.80;56.10;;;;;;6072955;23;20581;-81
2021/05/18 07:13:11;;;;;;;6.13;5.25;;;18.80;56.00;;;;;;6073363;23;20139;-81
2021/05/18 07:15:38;;;;;;;6.13;5.30;;;18.80;56.10;;;;;;6072895;23;20185;-82
2021/05/18 07:18:06;;;;;;;6.47;5.80;;;18.70;56.10;;;;;;6073778;23;20266;-82
2021/05/18 07:20:32;;;;;;;6.35;5.47;;;18.70;56.10;;;;;;6074374;23;20166;-82
2021/05/18 07:23:07;;;;;;;7.43;6.05;;;18.80;56.00;;;;;;6074175;23;20141;-82
2021/05/18 07:25:33;;;;;;;8.20;5.35;;;18.80;56.00;;;;;;6074185;23;20263;-81
2021/05/18 07:27:59;;;;;;;6.22;5.35;;;18.90;56.00;;;;;;6073736;23;20636;-82
2021/05/18 07:30:25;;;;;;;5.90;5.30;;;18.80;55.80;;;;;;6073896;23;20152;-81
2021/05/18 07:32:50;;;;;;;6.75;5.53;;;18.80;55.90;;;;;;6072559;23;20142;-82
2021/05/18 07:35:16;;;;;;;6.95;5.40;;;18.80;56.00;;;;;;6077481;23;20200;-82
2021/05/18 07:37:45;;;;;;;7.53;5.47;;;18.80;56.10;;;;;;6057216;23;20195;-83
2021/05/18 07:40:13;;;;;;;5.78;5.28;;;18.80;56.10;;;;;;6081898;23;20142;-82
2021/05/18 07:42:40;;;;;;;6.22;5.40;;;18.80;56.10;;;;;;6066064;23;20149;-82
2021/05/18 07:45:09;;;;;;;6.25;5.53;;;18.80;56.00;;;;;;6126518;23;20150;-83
2021/05/18 07:47:37;;;;;;;6.05;5.45;;;18.80;55.90;;;;;;6175267;23;20178;-82
2021/05/18 07:50:07;;;;;;;5.97;5.30;;;18.80;55.90;;;;;;6175087;23;20206;-83
2021/05/18 08:06:16;;;;;;;6.32;4.97;;;18.90;55.80;;;;;;6192436;23;20630;-82
2021/05/18 08:08:44;;;;;;;6.55;5.70;;;18.90;55.80;;;;;;6140261;23;20185;-80
2021/05/18 08:11:11;;;;;;;6.45;5.47;;;19.00;55.90;;;;;;6149685;23;20153;-81
2021/05/18 08:13:38;;;;;;;6.15;4.93;;;19.00;55.70;;;;;;6150042;23;20150;-81
2021/05/18 10:34:28;;;;;;;6.60;5.25;;;19.20;54.90;;;;;;6176438;23;20257;-81
2021/05/18 10:36:54;;;;;;;5.53;4.90;;;19.20;54.90;;;;;;6200395;23;20147;-81
2021/05/18 10:39:26;;;;;;;5.05;4.55;;;19.20;54.70;;;;;;6176371;23;20567;-81
2021/05/18 10:41:52;;;;;;;5.70;4.90;;;19.20;54.80;;;;;;6150284;23;20147;-81
2021/05/18 10:44:19;;;;;;;7.88;4.75;;;19.20;54.80;;;;;;6174969;23;20151;-81
2021/05/18 10:46:56;;;;;;;5.82;5.20;;;19.20;54.80;;;;;;6149817;23;20150;-81
2021/05/18 10:49:35;;;;;;;5.30;4.80;;;19.20;55.00;;;;;;6174428;23;20123;-81
2021/05/18 10:52:05;;;;;;;5.60;5.00;;;19.20;55.10;;;;;;6175022;23;20227;-81
2021/05/18 10:54:35;;;;;;;5.45;4.57;;;19.20;54.90;;;;;;6174651;23;20143;-82
2021/05/18 10:57:14;;;;;;;5.97;4.82;;;19.20;55.00;;;;;;6176215;23;20141;-81
2021/05/18 10:59:48;;;;;;;6.80;4.75;;;19.20;54.70;;;;;;6127732;23;20135;-81
2021/05/18 11:02:24;;;;;;;5.80;4.80;;;19.20;54.90;;;;;;6173494;23;20206;-82
2021/05/18 11:05:14;;;;;;;5.30;4.60;;;19.20;54.90;;;;;;6171917;23;20201;-81
2021/05/18 11:07:43;;;;;;;5.18;4.68;;;19.20;55.00;;;;;;6166661;23;20179;-81
2021/05/18 11:10:15;;;;;;;5.85;4.65;;;19.20;55.00;;;;;;6197793;23;20139;-82
2021/05/18 11:12:51;;;;;;;5.25;4.70;;;19.10;55.20;;;;;;6171760;23;20551;-82
2021/05/18 11:15:23;;;;;;;5.45;4.60;;;19.10;55.10;;;;;;6171531;23;20191;-81
2021/05/18 11:17:50;;;;;;;5.13;4.57;;;19.20;55.20;;;;;;6198334;23;20135;-82
2021/05/18 11:26:03;;;;;;;5.20;4.70;;;19.20;54.80;;;;;;6197488;23;20142;-83
2021/05/18 11:28:40;;;;;;;5.05;4.45;;;19.30;54.80;;;;;;6164675;23;20189;-83
2021/05/18 11:31:10;;;;;;;5.35;4.30;;;19.30;54.70;;;;;;6163635;23;20142;-83
2021/05/18 11:33:37;;;;;;;5.57;4.97;;;19.30;54.80;;;;;;6141734;23;20143;-83
2021/05/18 11:36:09;;;;;;;5.45;4.95;;;19.30;54.80;;;;;;6118340;23;20155;-83
2021/05/18 11:38:39;;;;;;;5.90;5.15;;;19.30;54.90;;;;;;6141481;23;20155;-82
2021/05/18 11:41:07;;;;;;;5.25;4.70;;;19.30;54.80;;;;;;6144419;23;20146;-82
2021/05/18 11:43:38;;;;;;;5.32;4.82;;;19.20;54.90;;;;;;6197329;23;20154;-82
2021/05/18 11:46:12;;;;;;;5.32;4.82;;;19.30;54.90;;;;;;6147878;23;20157;-81
2021/05/18 11:48:40;;;;;;;5.30;4.78;;;19.20;55.00;;;;;;6120386;23;20182;-81
2021/05/18 11:51:11;;;;;;;4.80;4.30;;;19.20;55.00;;;;;;6143268;23;20183;-82
2021/05/18 11:53:39;;;;;;;6.05;4.97;;;19.20;55.10;;;;;;6118196;23;20162;-82
2021/05/18 11:56:35;;;;;;;5.13;4.63;;;19.20;55.00;;;;;;6140145;23;20150;-81
2021/05/18 11:59:17;;;;;;;5.20;4.60;;;19.20;55.00;;;;;;6072356;23;20161;-81
2021/05/18 12:01:44;;;;;;;5.28;4.68;;;19.20;54.90;;;;;;6045318;23;20137;-82
2021/05/18 12:04:17;;;;;;;5.55;4.80;;;19.30;55.00;;;;;;6044750;23;20185;-82
2021/05/18 12:06:54;;;;;;;5.22;4.60;;;19.20;54.90;;;;;;6045027;23;20497;-82
2021/05/18 12:09:20;;;;;;;5.05;4.50;;;19.20;54.70;;;;;;6045006;23;20186;-82
2021/05/18 12:11:58;;;;;;;5.18;4.68;;;19.20;54.80;;;;;;6043929;23;20505;-81
2021/05/18 12:14:23;;;;;;;6.00;4.53;;;19.20;55.00;;;;;;6044388;23;20608;-81
2021/05/18 12:16:50;;;;;;;5.13;4.63;;;19.30;54.70;;;;;;6043833;23;20150;-81
2021/05/18 12:19:16;;;;;;;5.13;4.60;;;19.30;55.40;;;;;;6044647;23;20250;-82
2021/05/18 12:21:45;;;;;;;5.90;4.82;;;19.30;54.70;;;;;;6043986;23;20178;-82
2021/05/18 12:24:15;;;;;;;5.97;4.80;;;19.30;54.80;;;;;;6045147;23;20213;-81
2021/05/18 12:26:48;;;;;;;4.80;4.30;;;19.30;54.60;;;;;;6045291;23;20141;-82
2021/05/18 12:29:30;;;;;;;5.40;4.90;;;19.30;54.60;;;;;;6045347;23;20161;-82
2021/05/18 12:32:20;;;;;;;5.65;4.88;;;19.30;54.50;;;;;;6045826;23;20212;-82
2021/05/18 12:34:53;;;;;;;4.80;4.30;;;19.40;54.50;;;;;;6072735;23;20199;-82
2021/05/18 12:37:53;;;;;;;5.63;5.00;;;19.40;54.50;;;;;;6138286;23;20530;-83
2021/05/18 12:40:43;;;;;;;5.55;4.95;;;19.30;54.50;;;;;;6165844;23;20586;-82
2021/05/18 12:43:14;;;;;;;4.60;4.13;;;19.30;54.40;;;;;;6162915;23;20235;-80
2021/05/18 12:45:41;;;;;;;4.75;4.28;;;19.40;54.20;;;;;;6186545;23;20131;-82
2021/05/18 12:48:08;;;;;;;5.00;4.50;;;19.40;54.20;;;;;;6136404;23;20177;-82
2021/05/18 12:50:41;;;;;;;4.85;4.35;;;19.40;54.30;;;;;;6160268;23;20197;-81
2021/05/18 12:53:24;;;;;;;5.30;4.80;;;19.40;54.20;;;;;;6160966;23;20143;-81
2021/05/18 12:55:58;;;;;;;4.22;3.83;;;19.40;54.00;;;;;;6139177;23;20583;-82
2021/05/18 12:58:25;;;;;;;5.22;4.70;;;19.50;53.30;;;;;;6162900;23;20161;-81
2021/05/18 13:00:51;;;;;;;5.15;4.60;;;19.50;53.60;;;;;;6161718;23;20135;-82
2021/05/18 13:03:18;;;;;;;5.00;4.45;;;19.50;53.50;;;;;;6162101;23;20590;-81
2021/05/18 13:05:48;;;;;;;5.32;4.30;;;19.50;53.20;;;;;;6161707;23;20135;-82
2021/05/18 13:08:15;;;;;;;7.68;4.60;;;19.50;53.40;;;;;;6166038;23;20169;-82
2021/05/18 13:11:04;;;;;;;4.60;4.20;;;19.50;53.50;;;;;;6187212;23;20132;-82
2021/05/18 13:13:39;;;;;;;4.70;4.25;;;19.50;53.40;;;;;;6139921;23;20139;-81
2021/05/18 13:16:21;;;;;;;5.15;4.60;;;19.60;53.40;;;;;;6190102;23;20130;-81
2021/05/18 13:18:58;;;;;;;5.13;4.25;;;19.60;53.30;;;;;;6162138;23;20134;-81
2021/05/18 13:21:37;;;;;;;4.72;4.22;;;19.50;53.50;;;;;;6160614;23;20201;-81
2021/05/18 13:26:36;;;;;;;4.82;4.32;;;19.40;53.90;;;;;;6186460;23;20141;-81
2021/05/18 13:29:08;;;;;;;4.75;4.25;;;19.40;54.00;;;;;;6138321;23;20622;-82
2021/05/18 13:31:36;;;;;;;5.07;4.50;;;19.30;54.10;;;;;;6161925;23;20138;-81
2021/05/18 13:34:02;;;;;;;4.70;4.20;;;19.30;53.90;;;;;;6161238;23;20636;-81
2021/05/18 13:36:33;;;;;;;5.07;4.57;;;19.30;53.90;;;;;;6166046;23;20154;-81
2021/05/18 13:39:09;;;;;;;4.20;3.80;;;19.30;54.10;;;;;;6143501;23;20154;-81
2021/05/18 13:41:37;;;;;;;4.53;4.03;;;19.30;54.00;;;;;;6168212;23;20566;-81
2021/05/18 13:44:07;;;;;;;4.25;3.85;;;19.30;53.90;;;;;;6166125;23;20228;-81
2021/05/18 13:46:35;;;;;;;4.90;4.38;;;19.30;53.90;;;;;;6141067;23;20549;-81
2021/05/18 13:49:02;;;;;;;4.75;4.30;;;19.30;53.70;;;;;;6140418;23;20209;-82
2021/05/18 13:51:38;;;;;;;5.18;4.15;;;19.30;53.90;;;;;;6169912;23;20146;-81
2021/05/18 13:54:06;;;;;;;4.50;3.95;;;19.20;53.90;;;;;;6172391;23;20173;-81
2021/05/18 13:56:41;;;;;;;4.20;3.80;;;19.30;53.40;;;;;;6150474;23;20213;-80
2021/05/18 13:59:16;;;;;;;4.22;3.83;;;19.40;53.30;;;;;;6174347;23;20133;-81
2021/05/18 14:01:50;;;;;;;4.18;3.78;;;19.40;53.20;;;;;;6170977;23;20570;-81
2021/05/18 14:04:17;;;;;;;4.68;3.85;;;19.40;53.10;;;;;;6171939;23;20130;-81
2021/05/18 14:07:31;;;;;;;4.90;4.13;;;19.40;53.10;;;;;;6145669;23;20151;-81
2021/05/18 14:09:58;;;;;;;4.32;3.92;;;19.40;52.80;;;;;;6108292;23;20184;-81
2021/05/18 14:12:24;;;;;;;5.18;4.00;;;19.50;52.60;;;;;;6080111;23;20137;-81
2021/05/18 14:14:51;;;;;;;4.38;3.97;;;19.40;52.60;;;;;;6056498;23;20152;-81
2021/05/18 14:17:18;;;;;;;3.97;3.58;;;19.40;52.70;;;;;;6078112;23;20149;-80
2021/05/18 14:19:45;;;;;;;4.40;3.65;;;19.40;52.70;;;;;;6057280;23;20168;-81
2021/05/18 14:22:32;;;;;;;;;;;;;;;;;;;;;
2021/05/18 14:25:06;;;;;;;4.68;4.20;;;19.40;52.60;;;;;;6083928;23;20183;-81
2021/05/18 14:27:53;;;;;;;4.35;3.78;;;19.40;52.80;;;;;;6086287;23;20180;-80
2021/05/18 14:30:28;;;;;;;4.43;4.03;;;19.40;52.70;;;;;;6061682;23;20152;-81
2021/05/18 14:32:57;;;;;;;5.32;4.38;;;19.40;52.70;;;;;;6057729;23;20223;-80
2021/05/18 14:35:23;;;;;;;4.50;4.10;;;19.40;52.90;;;;;;6103594;23;20196;-81
2021/05/18 14:37:57;;;;;;;4.28;3.88;;;19.40;52.60;;;;;;6057576;23;20156;-81
2021/05/18 14:43:12;;;;;;;4.32;3.92;;;19.50;52.20;;;;;;6149732;23;20135;-80
2021/05/18 14:45:40;;;;;;;4.10;3.70;;;19.50;52.30;;;;;;6150575;23;20198;-81
2021/05/18 14:53:39;;;;;;;4.20;3.80;;;19.40;52.30;;;;;;6122951;23;20182;-81
2021/05/18 14:54:05;;;;;;;4.32;3.92;;;19.40;52.30;;;;;;6171100;23;20138;-80
2021/05/18 14:56:31;;;;;;;4.38;3.97;;;19.40;52.40;;;;;;6149363;23;20130;-81
2021/05/18 14:58:58;;;;;;;5.05;4.55;;;19.40;52.00;;;;;;6169362;23;20134;-79
2021/05/18 15:01:25;;;;;;;5.07;4.57;;;19.40;52.30;;;;;;6140135;23;20323;-80
2021/05/18 15:03:51;;;;;;;4.53;4.13;;;19.40;52.20;;;;;;6193301;23;20139;-80
2021/05/18 15:06:18;;;;;;;5.00;4.50;;;19.40;52.30;;;;;;6165686;23;20206;-80
2021/05/18 15:08:44;;;;;;;4.32;3.85;;;19.40;52.40;;;;;;6164687;23;20186;-81
2021/05/18 15:11:11;;;;;;;4.90;4.13;;;19.40;52.10;;;;;;6140822;23;20139;-80
2021/05/18 15:13:37;;;;;;;4.50;4.10;;;19.50;52.10;;;;;;6166337;23;20135;-80
2021/05/18 15:16:05;;;;;;;4.78;4.25;;;19.50;51.90;;;;;;6165917;23;20135;-80
2021/05/18 15:18:34;;;;;;;3.90;3.50;;;19.50;51.90;;;;;;6190738;23;20162;-81
2021/05/18 15:21:05;;;;;;;3.55;3.25;;;19.50;51.70;;;;;;6166397;23;20234;-81
2021/05/18 15:23:32;;;;;;;4.65;4.25;;;19.50;51.60;;;;;;6168589;23;20209;-80
2021/05/18 15:25:59;;;;;;;4.05;3.65;;;19.50;51.90;;;;;;6167598;23;20156;-80
2021/05/18 15:28:25;;;;;;;4.10;3.70;;;19.50;51.90;;;;;;6164931;23;20167;-80
2021/05/18 15:30:53;;;;;;;4.05;3.55;;;19.50;51.90;;;;;;6190478;23;20193;-80
2021/05/18 15:33:20;;;;;;;4.45;3.45;;;19.40;51.80;;;;;;6142282;23;20161;-80
2021/05/18 15:35:46;;;;;;;3.97;3.58;;;19.50;52.30;;;;;;6167272;23;20216;-80
2021/05/18 15:38:13;;;;;;;4.70;4.20;;;19.50;51.80;;;;;;6142845;23;20483;-81
2021/05/18 15:40:39;;;;;;;3.60;3.30;;;19.50;51.90;;;;;;6168473;23;20145;-80
2021/05/18 15:43:14;;;;;;;4.55;4.15;;;19.50;51.30;;;;;;6140202;23;20146;-80
2021/05/18 15:45:41;;;;;;;5.57;4.00;;;19.50;51.50;;;;;;6143281;23;20202;-80
2021/05/18 15:48:07;;;;;;;4.03;3.63;;;19.50;51.40;;;;;;6194962;23;20174;-79
2021/05/18 15:50:34;;;;;;;4.60;4.20;;;19.50;51.10;;;;;;6168698;23;20589;-80
2021/05/18 15:53:01;;;;;;;4.78;4.28;;;19.50;51.40;;;;;;6167443;23;20131;-81
2021/05/18 15:55:30;;;;;;;4.50;3.95;;;19.50;51.50;;;;;;6167260;23;20131;-79
2021/05/18 15:57:56;;;;;;;4.18;3.72;;;19.40;51.60;;;;;;6139992;23;20563;-80
2021/05/18 16:00:22;;;;;;;4.82;4.32;;;19.40;51.50;;;;;;6163431;23;20535;-81
2021/05/18 16:02:49;;;;;;;4.43;4.03;;;19.40;51.60;;;;;;6164865;23;20146;-79
2021/05/18 16:05:15;;;;;;;5.38;4.38;;;19.40;51.50;;;;;;6190845;23;20131;-79
2021/05/18 16:07:44;;;;;;;3.70;3.40;;;19.40;51.40;;;;;;6191892;23;20173;-80
2021/05/18 16:10:10;;;;;;;4.10;3.70;;;19.40;51.50;;;;;;6192542;23;20201;-80
2021/05/18 16:12:36;;;;;;;4.18;3.78;;;19.40;51.40;;;;;;6141487;23;20598;-80
2021/05/18 16:15:03;;;;;;;4.05;3.65;;;19.40;51.40;;;;;;6141185;23;20131;-81
2021/05/18 16:17:29;;;;;;;5.15;3.67;;;19.40;51.30;;;;;;6164893;23;20135;-80
2021/05/18 16:19:54;;;;;;;4.13;3.72;;;19.50;51.30;;;;;;6164078;23;20210;-80
2021/05/18 16:22:21;;;;;;;3.88;3.47;;;19.50;51.30;;;;;;6165186;23;20143;-80
2021/05/18 16:24:49;;;;;;;3.90;3.53;;;19.50;51.20;;;;;;6192151;23;20582;-80
2021/05/18 16:27:16;;;;;;;4.85;3.70;;;19.50;51.20;;;;;;6189690;23;20677;-80
2021/05/18 16:29:45;;;;;;;3.28;2.97;;;19.50;50.90;;;;;;6191022;23;20177;-81
2021/05/18 16:32:12;;;;;;;3.47;3.17;;;19.60;50.80;;;;;;6140635;23;20166;-80
2021/05/18 16:34:38;;;;;;;4.03;3.60;;;19.60;50.60;;;;;;6190195;23;20253;-80
2021/05/18 16:37:04;;;;;;;4.00;3.60;;;19.60;50.70;;;;;;6164583;23;20154;-78
2021/05/18 16:39:29;;;;;;;4.03;3.63;;;19.60;51.00;;;;;;6189688;23;20139;-79
2021/05/18 16:41:55;;;;;;;5.13;3.92;;;19.50;51.00;;;;;;6163916;23;20131;-79
2021/05/18 16:44:22;;;;;;;3.95;3.55;;;19.50;51.20;;;;;;6164076;23;20166;-79
2021/05/18 16:46:47;;;;;;;4.28;3.88;;;19.50;51.20;;;;;;6164856;23;20185;-79
2021/05/18 16:49:13;;;;;;;4.10;3.67;;;19.50;51.40;;;;;;6163301;23;20170;-79
2021/05/18 16:51:40;;;;;;;5.80;3.67;;;19.40;51.40;;;;;;6189137;23;20134;-79
2021/05/18 16:54:09;;;;;;;4.10;3.65;;;19.40;51.50;;;;;;6138827;23;20451;-79
2021/05/18 16:56:36;;;;;;;4.30;3.90;;;19.40;51.60;;;;;;6164136;23;20182;-79
2021/05/18 16:59:05;;;;;;;5.78;3.80;;;19.40;51.50;;;;;;6114926;23;20494;-79
2021/05/18 17:01:30;;;;;;;4.10;3.72;;;19.40;51.60;;;;;;6163709;23;20206;-80
2021/05/18 17:04:00;;;;;;;5.20;3.83;;;19.40;51.60;;;;;;6188720;23;20138;-79
2021/05/18 17:06:25;;;;;;;5.57;4.15;;;19.50;51.60;;;;;;6161416;23;20168;-79
2021/05/18 17:08:51;;;;;;;5.50;3.60;;;19.50;51.60;;;;;;6189627;23;20198;-80
2021/05/18 17:11:18;;;;;;;3.80;3.45;;;19.50;51.60;;;;;;6162884;23;20142;-80
2021/05/18 17:13:43;;;;;;;4.30;3.80;;;19.50;51.60;;;;;;6190916;23;20131;-80
2021/05/18 17:16:09;;;;;;;3.95;3.42;;;19.40;51.60;;;;;;6138396;23;20467;-79
2021/05/18 17:18:35;;;;;;;6.13;3.45;;;19.50;51.60;;;;;;6163725;23;20142;-80
2021/05/18 17:21:01;;;;;;;4.50;3.58;;;19.50;51.60;;;;;;6138873;23;20179;-80
2021/05/18 17:23:26;;;;;;;5.78;3.60;;;19.50;51.50;;;;;;6164512;23;20218;-79
2021/05/18 17:25:52;;;;;;;3.97;3.58;;;19.50;51.60;;;;;;6165231;23;20206;-79
2021/05/18 17:28:24;;;;;;;3.58;3.28;;;19.50;51.60;;;;;;6190920;23;20261;-80
2021/05/18 17:30:50;;;;;;;4.22;3.83;;;19.50;51.60;;;;;;6139545;23;20151;-79
2021/05/18 17:33:17;;;;;;;4.00;3.60;;;19.50;51.60;;;;;;6163713;23;20581;-80
2021/05/18 17:35:43;;;;;;;4.90;3.80;;;19.50;51.60;;;;;;6140864;23;20190;-79
2021/05/18 17:38:08;;;;;;;7.05;3.60;;;19.50;51.60;;;;;;6165481;23;20197;-80
2021/05/18 17:40:38;;;;;;;3.90;3.20;;;19.50;51.60;;;;;;6164962;23;20134;-80
2021/05/18 17:43:05;;;;;;;3.92;3.60;;;19.50;51.50;;;;;;6165240;23;20150;-80
2021/05/18 17:45:32;;;;;;;4.63;3.40;;;19.50;51.50;;;;;;6190891;23;20219;-80
2021/05/18 17:48:03;;;;;;;3.63;3.25;;;19.50;51.40;;;;;;6163392;23;20252;-79
2021/05/18 17:50:30;;;;;;;5.25;3.85;;;19.50;51.30;;;;;;6190265;23;20138;-82
2021/05/18 17:53:05;;;;;;;3.70;3.35;;;19.50;51.30;;;;;;6162103;23;20131;-79
2021/05/18 17:55:31;;;;;;;3.85;3.45;;;19.50;51.50;;;;;;6165002;23;20559;-79
2021/05/18 17:57:58;;;;;;;4.35;3.35;;;19.50;51.40;;;;;;6167064;23;20131;-79
2021/05/18 18:00:23;;;;;;;5.80;3.50;;;19.50;51.20;;;;;;6166645;23;20471;-79
2021/05/18 18:02:49;;;;;;;5.05;3.22;;;19.50;51.20;;;;;;6166890;23;20139;-79
2021/05/18 18:05:18;;;;;;;4.55;3.58;;;19.50;51.20;;;;;;6166215;23;20153;-80
2021/05/18 18:07:45;;;;;;;6.20;3.17;;;19.50;51.10;;;;;;6192753;23;20173;-79
2021/05/18 18:10:13;;;;;;;3.78;3.42;;;19.60;50.80;;;;;;6166673;23;20135;-79
2021/05/18 18:12:40;;;;;;;4.88;3.50;;;19.50;50.80;;;;;;6168775;23;20151;-78
2021/05/18 18:15:09;;;;;;;5.15;4.00;;;19.50;51.10;;;;;;6166109;23;20157;-80